createdAt,value
2018-03-19T00:00:02.460Z,12.85
2018-03-19T00:02:30.086Z,14.80
2018-03-19T00:04:58.438Z,12.82
2018-03-19T00:07:26.070Z,12.52
2018-03-19T00:09:53.670Z,12.05
2018-03-19T00:12:21.279Z,12.70
2018-03-19T00:14:48.901Z,13.13
2018-03-19T00:17:16.532Z,14.40
2018-03-19T00:19:46.082Z,13.02
2018-03-19T00:22:14.463Z,12.63
2018-03-19T00:24:42.843Z,11.85
2018-03-19T00:27:11.217Z,15.73
2018-03-19T00:29:38.790Z,13.77
2018-03-19T00:32:07.200Z,12.20
2018-03-19T00:34:34.843Z,12.15
2018-03-19T00:37:03.230Z,14.50
2018-03-19T00:39:30.856Z,13.30
2018-03-19T00:41:58.508Z,12.52
2018-03-19T00:44:26.151Z,12.85
2018-03-19T00:46:53.738Z,11.73
2018-03-19T00:49:21.353Z,13.20
2018-03-19T00:51:48.956Z,12.70
2018-03-19T00:54:16.573Z,12.37
2018-03-19T00:56:44.167Z,11.90
2018-03-19T00:59:11.791Z,12.85
2018-03-19T01:01:42.431Z,13.55
2018-03-19T01:04:10.872Z,12.88
2018-03-19T01:06:39.221Z,12.37
2018-03-19T01:09:06.862Z,13.95
2018-03-19T01:11:34.483Z,12.23
2018-03-19T01:14:02.133Z,12.43
2018-03-19T01:16:29.762Z,13.55
2018-03-19T01:18:57.345Z,13.73
2018-03-19T01:21:24.950Z,13.07
2018-03-19T01:23:52.596Z,13.82
2018-03-19T01:26:20.986Z,12.32
2018-03-19T01:28:48.557Z,12.52
2018-03-19T01:31:16.178Z,14.65
2018-03-19T01:33:43.767Z,12.37
2018-03-19T01:36:11.412Z,13.93
2018-03-19T01:38:39.780Z,13.52
2018-03-19T01:41:07.392Z,13.23
2018-03-19T01:43:35.015Z,13.38
2018-03-19T01:46:03.368Z,14.05
2018-03-19T01:48:31.074Z,13.50
2018-03-19T01:50:58.657Z,11.35
2018-03-19T01:53:26.250Z,12.73
2018-03-19T01:55:53.858Z,12.80
2018-03-19T01:58:21.522Z,11.95
2018-03-19T02:00:49.875Z,11.90
2018-03-19T02:03:17.454Z,13.32
2018-03-19T02:05:45.089Z,12.25
2018-03-19T02:08:12.679Z,11.00
2018-03-19T02:10:41.057Z,12.75
2018-03-19T02:13:12.457Z,12.75
2018-03-19T02:15:42.243Z,11.95
2018-03-19T02:18:12.150Z,11.30
2018-03-19T02:20:42.116Z,12.52
2018-03-19T02:23:12.015Z,13.00
2018-03-19T02:25:41.668Z,12.15
2018-03-19T02:28:12.556Z,12.77
2018-03-19T02:30:42.008Z,12.52
2018-03-19T02:33:10.387Z,11.45
2018-03-19T02:35:38.728Z,12.93
2018-03-19T02:38:06.360Z,13.07
2018-03-19T02:40:33.955Z,12.70
2018-03-19T02:43:01.580Z,12.27
2018-03-19T02:45:29.196Z,12.00
2018-03-19T02:47:56.776Z,12.00
2018-03-19T02:50:25.146Z,12.55
2018-03-19T02:52:53.497Z,12.35
2018-03-19T02:55:21.117Z,12.88
2018-03-19T02:57:49.469Z,13.25
2018-03-19T03:00:17.856Z,12.75
2018-03-19T03:02:45.439Z,15.43
2018-03-19T03:05:13.015Z,13.02
2018-03-19T03:07:42.009Z,13.13
2018-03-19T03:10:10.546Z,12.93
2018-03-19T03:12:38.884Z,12.35
2018-03-19T03:15:06.507Z,13.32
2018-03-19T03:17:34.087Z,13.45
2018-03-19T03:20:01.704Z,13.02
2018-03-19T03:22:29.358Z,11.75
2018-03-19T03:24:57.720Z,11.43
2018-03-19T03:27:25.316Z,12.23
2018-03-19T03:29:52.938Z,13.18
2018-03-19T03:32:20.568Z,12.90
2018-03-19T03:34:48.144Z,14.45
2018-03-19T03:37:15.765Z,13.93
2018-03-19T03:39:43.384Z,12.48
2018-03-19T03:42:11.024Z,13.07
2018-03-19T03:44:38.609Z,12.55
2018-03-19T03:47:06.236Z,13.30
2018-03-19T03:49:33.859Z,12.35
2018-03-19T03:52:02.266Z,13.45
2018-03-19T03:54:30.630Z,12.82
2018-03-19T03:56:59.054Z,12.82
2018-03-19T03:59:26.628Z,12.37
2018-03-19T04:01:54.280Z,13.95
2018-03-19T04:04:21.854Z,13.02
2018-03-19T04:06:49.447Z,13.60
2018-03-19T04:09:17.825Z,12.40
2018-03-19T04:11:45.436Z,12.68
2018-03-19T04:14:13.061Z,13.05
2018-03-19T04:16:40.664Z,13.32
2018-03-19T04:19:08.276Z,13.15
2018-03-19T04:21:36.687Z,13.80
2018-03-19T04:24:04.299Z,13.68
2018-03-19T04:26:31.873Z,14.80
2018-03-19T04:29:00.321Z,13.68
2018-03-19T04:31:27.929Z,11.52
2018-03-19T04:33:56.305Z,13.13
2018-03-19T04:36:24.650Z,14.25
2018-03-19T04:38:52.277Z,12.98
2018-03-19T04:41:19.907Z,12.57
2018-03-19T04:43:48.278Z,13.50
2018-03-19T04:46:16.661Z,13.10
2018-03-19T04:48:45.047Z,13.10
2018-03-19T04:51:12.634Z,13.45
2018-03-19T04:53:40.296Z,14.40
2018-03-19T04:56:07.931Z,14.85
2018-03-19T04:58:35.565Z,13.32
2018-03-19T05:01:03.934Z,13.30
2018-03-19T05:03:31.567Z,13.68
2018-03-19T05:05:59.186Z,12.15
2018-03-19T05:08:27.567Z,14.25
2018-03-19T05:10:55.911Z,13.15
2018-03-19T05:13:23.550Z,12.13
2018-03-19T05:15:51.211Z,14.70
2018-03-19T05:18:18.816Z,13.85
2018-03-19T05:20:46.486Z,13.95
2018-03-19T05:23:14.089Z,13.40
2018-03-19T05:25:41.752Z,14.70
2018-03-19T05:28:10.225Z,13.68
2018-03-19T05:30:37.866Z,14.82
2018-03-19T05:33:06.261Z,13.35
2018-03-19T05:35:33.829Z,12.98
2018-03-19T05:38:02.252Z,13.35
2018-03-19T05:40:29.847Z,13.55
2018-03-19T05:42:58.287Z,13.95
2018-03-19T05:45:25.930Z,13.20
2018-03-19T05:47:53.552Z,13.50
2018-03-19T05:50:21.925Z,13.90
2018-03-19T05:52:50.350Z,15.40
2018-03-19T05:55:17.988Z,13.80
2018-03-19T05:57:45.570Z,14.52
2018-03-19T06:00:13.205Z,13.23
2018-03-19T06:02:41.622Z,14.35
2018-03-19T06:05:09.214Z,14.40
2018-03-19T06:07:36.846Z,13.68
2018-03-19T06:10:04.427Z,13.82
2018-03-19T06:12:32.834Z,13.55
2018-03-19T06:15:01.184Z,15.00
2018-03-19T06:17:28.853Z,14.73
2018-03-19T06:19:56.463Z,14.85
2018-03-19T06:22:24.076Z,13.85
2018-03-19T06:24:51.958Z,12.32
2018-03-19T06:27:19.680Z,14.18
2018-03-19T06:29:47.292Z,14.73
2018-03-19T06:32:15.717Z,14.48
2018-03-19T06:34:43.323Z,15.13
2018-03-19T06:37:10.901Z,14.93
2018-03-19T06:39:38.543Z,14.75
2018-03-19T06:42:06.142Z,17.62
2018-03-19T06:44:34.128Z,14.90
2018-03-19T06:47:01.808Z,14.73
2018-03-19T06:49:29.392Z,15.10
2018-03-19T06:51:57.023Z,13.05
2018-03-19T06:54:24.642Z,14.23
2018-03-19T06:56:52.272Z,13.55
2018-03-19T06:59:19.879Z,15.43
2018-03-19T07:01:47.497Z,15.13
2018-03-19T07:04:15.122Z,13.50
2018-03-19T07:06:42.727Z,14.48
2018-03-19T07:09:10.386Z,13.77
2018-03-19T07:11:38.016Z,14.65
2018-03-19T07:14:05.653Z,13.07
2018-03-19T07:16:33.247Z,14.27
2018-03-19T07:19:01.832Z,18.40
2018-03-19T07:21:29.775Z,14.70
2018-03-19T07:23:57.382Z,13.65
2018-03-19T07:26:25.806Z,15.65
2018-03-19T07:28:53.479Z,13.80
2018-03-19T07:31:21.152Z,14.50
2018-03-19T07:33:48.768Z,12.65
2018-03-19T07:36:17.133Z,12.43
2018-03-19T07:38:44.862Z,12.35
2018-03-19T07:41:13.213Z,13.25
2018-03-19T07:43:40.891Z,15.25
2018-03-19T07:46:09.267Z,14.63
2018-03-19T07:48:36.914Z,12.35
2018-03-19T07:51:04.683Z,13.25
2018-03-19T07:53:32.312Z,12.95
2018-03-19T07:55:59.933Z,14.65
2018-03-19T07:58:27.539Z,13.40
2018-03-19T08:00:55.923Z,14.98
2018-03-19T08:03:23.577Z,14.90
2018-03-19T08:05:51.138Z,11.85
2018-03-19T08:08:18.760Z,12.52
2018-03-19T08:10:46.375Z,12.43
2018-03-19T08:13:14.019Z,11.93
2018-03-19T08:15:41.727Z,12.95
2018-03-19T08:18:09.359Z,14.60
2018-03-19T08:20:37.794Z,15.15
2018-03-19T08:23:05.415Z,13.27
2018-03-19T08:25:33.105Z,13.73
2018-03-19T08:28:00.763Z,13.60
2018-03-19T08:30:28.396Z,12.85
2018-03-19T08:32:55.971Z,13.05
2018-03-19T08:35:23.579Z,13.35
2018-03-19T08:37:51.191Z,13.00
2018-03-19T08:40:18.859Z,13.62
2018-03-19T08:42:46.429Z,13.82
2018-03-19T08:45:14.134Z,13.60
2018-03-19T08:47:41.822Z,12.98
2018-03-19T08:50:10.208Z,13.02
2018-03-19T08:52:38.588Z,11.70
2018-03-19T08:55:06.967Z,13.70
2018-03-19T08:57:35.358Z,12.18
2018-03-19T09:00:03.093Z,12.65
2018-03-19T09:02:30.773Z,12.93
2018-03-19T09:04:59.136Z,12.43
2018-03-19T09:07:26.876Z,13.57
2018-03-19T09:09:54.478Z,12.93
2018-03-19T09:12:22.960Z,12.70
2018-03-19T09:14:51.704Z,14.13
2018-03-19T09:17:19.391Z,13.98
2018-03-19T09:19:47.067Z,13.38
2018-03-19T09:22:14.634Z,13.52
2018-03-19T09:24:42.976Z,13.60
2018-03-19T09:27:10.617Z,12.73
2018-03-19T09:29:38.287Z,14.07
2018-03-19T09:32:05.889Z,14.25
2018-03-19T09:34:35.893Z,13.95
2018-03-19T09:37:05.348Z,14.38
2018-03-19T09:39:35.403Z,13.93
2018-03-19T09:42:04.802Z,14.65
2018-03-19T09:44:33.957Z,13.15
2018-03-19T09:47:02.955Z,13.80
2018-03-19T09:49:39.751Z,16.42
2018-03-19T09:52:15.858Z,15.75
2018-03-19T09:54:45.138Z,14.63
2018-03-19T09:57:14.645Z,15.75
2018-03-19T09:59:44.977Z,17.00
2018-03-19T10:02:13.992Z,15.15
2018-03-19T10:04:43.733Z,15.38
2018-03-19T10:07:12.562Z,15.00
2018-03-19T10:09:42.751Z,16.08
2018-03-19T10:12:11.120Z,17.33
2018-03-19T10:14:39.043Z,15.73
2018-03-19T10:17:06.628Z,16.30
2018-03-19T10:19:35.056Z,14.90
2018-03-19T10:22:04.603Z,16.90
2018-03-19T10:24:33.125Z,15.40
2018-03-19T10:27:00.791Z,18.08
2018-03-19T10:29:28.498Z,16.27
2018-03-19T10:31:56.095Z,15.40
2018-03-19T10:34:23.701Z,16.80
2018-03-19T10:36:51.434Z,17.55
2018-03-19T10:39:19.179Z,16.42
2018-03-19T10:41:46.868Z,14.48
2018-03-19T10:44:14.645Z,16.00
2018-03-19T10:46:42.342Z,16.20
2018-03-19T10:49:10.003Z,14.00
2018-03-19T10:51:37.642Z,16.50
2018-03-19T10:54:05.277Z,16.40
2018-03-19T10:56:32.953Z,15.50
2018-03-19T10:59:00.636Z,15.90
2018-03-19T11:01:33.986Z,15.93
2018-03-19T11:04:01.942Z,15.73
2018-03-19T11:06:35.451Z,16.85
2018-03-19T11:09:09.678Z,15.45
2018-03-19T11:11:37.679Z,17.40
2018-03-19T11:14:05.343Z,17.37
2018-03-19T11:16:33.019Z,16.02
2018-03-19T11:19:00.646Z,16.75
2018-03-19T11:21:28.274Z,18.40
2018-03-19T11:23:56.160Z,18.87
2018-03-19T11:26:23.814Z,17.58
2018-03-19T11:28:52.230Z,18.23
2018-03-19T11:31:19.906Z,16.83
2018-03-19T11:33:47.522Z,18.17
2018-03-19T11:36:15.177Z,17.30
2018-03-19T11:38:43.569Z,16.70
2018-03-19T11:41:11.959Z,19.20
2018-03-19T11:43:40.426Z,17.10
2018-03-19T11:46:08.799Z,18.55
2018-03-19T11:48:37.307Z,18.48
2018-03-19T11:51:04.972Z,17.77
2018-03-19T11:53:32.556Z,18.25
2018-03-19T11:56:00.294Z,18.10
2018-03-19T11:58:27.925Z,17.90
2018-03-19T12:00:56.423Z,18.50
2018-03-19T12:03:24.040Z,16.37
2018-03-19T12:05:51.687Z,17.95
2018-03-19T12:08:20.109Z,17.50
2018-03-19T12:10:47.877Z,18.70
2018-03-19T12:13:17.699Z,19.65
2018-03-19T12:15:45.386Z,18.83
2018-03-19T12:18:13.322Z,20.30
2018-03-19T12:20:41.763Z,20.25
2018-03-19T12:23:09.413Z,20.55
2018-03-19T12:25:37.062Z,19.15
2018-03-19T12:28:04.671Z,19.50
2018-03-19T12:30:32.248Z,18.20
2018-03-19T12:33:00.665Z,16.60
2018-03-19T12:35:28.250Z,18.62
2018-03-19T12:37:58.329Z,17.70
2018-03-19T12:40:27.583Z,19.20
2018-03-19T12:42:55.202Z,18.92
2018-03-19T12:45:22.921Z,17.52
2018-03-19T12:47:50.574Z,18.10
2018-03-19T12:50:19.208Z,17.33
2018-03-19T12:52:46.818Z,18.27
2018-03-19T12:55:14.467Z,17.75
2018-03-19T12:57:42.162Z,18.40
2018-03-19T13:00:09.874Z,19.60
2018-03-19T13:02:37.501Z,17.27
2018-03-19T13:05:05.931Z,18.20
2018-03-19T13:07:33.674Z,16.65
2018-03-19T13:10:01.348Z,18.58
2018-03-19T13:12:29.743Z,21.12
2018-03-19T13:14:57.380Z,17.08
2018-03-19T13:17:25.044Z,16.05
2018-03-19T13:19:52.700Z,16.90
2018-03-19T13:22:20.344Z,16.48
2018-03-19T13:24:48.713Z,17.45
2018-03-19T13:27:17.176Z,16.00
2018-03-19T13:29:44.848Z,17.08
2018-03-19T13:32:12.535Z,16.67
2018-03-19T13:34:40.889Z,16.60
2018-03-19T13:37:08.577Z,16.27
2018-03-19T13:39:36.180Z,13.82
2018-03-19T13:42:03.834Z,14.25
2018-03-19T13:44:31.708Z,14.38
2018-03-19T13:46:59.386Z,15.73
2018-03-19T13:49:27.826Z,17.08
2018-03-19T13:51:55.506Z,15.23
2018-03-19T13:54:23.227Z,16.33
2018-03-19T13:56:51.828Z,18.45
2018-03-19T13:59:19.490Z,17.70
2018-03-19T14:01:47.931Z,16.58
2018-03-19T14:04:15.529Z,16.25
2018-03-19T14:06:43.909Z,15.98
2018-03-19T14:09:21.155Z,17.85
2018-03-19T14:11:48.815Z,16.58
2018-03-19T14:14:16.574Z,16.37
2018-03-19T14:16:44.223Z,15.00
2018-03-19T14:19:11.894Z,15.00
2018-03-19T14:21:40.172Z,15.05
2018-03-19T14:24:07.815Z,14.25
2018-03-19T14:26:35.450Z,13.73
2018-03-19T14:29:03.877Z,15.10
2018-03-19T14:31:31.514Z,14.60
2018-03-19T14:33:59.338Z,14.13
2018-03-19T14:36:27.486Z,14.82
2018-03-19T14:38:56.211Z,13.85
2018-03-19T14:41:23.935Z,14.82
2018-03-19T14:43:51.616Z,14.65
2018-03-19T14:46:20.091Z,14.85
2018-03-19T14:48:47.919Z,13.07
2018-03-19T14:51:15.855Z,14.68
2018-03-19T14:53:43.506Z,15.00
2018-03-19T14:56:11.254Z,14.15
2018-03-19T14:58:38.905Z,15.40
2018-03-19T15:01:06.561Z,12.63
2018-03-19T15:03:34.248Z,13.57
2018-03-19T15:06:01.935Z,14.07
2018-03-19T15:08:30.543Z,12.40
2018-03-19T15:10:58.240Z,12.95
2018-03-19T15:13:25.826Z,11.68
2018-03-19T15:15:53.443Z,11.95
2018-03-19T15:18:21.238Z,13.65
2018-03-19T15:20:48.910Z,10.40
2018-03-19T15:23:16.537Z,12.43
2018-03-19T15:25:44.935Z,12.48
2018-03-19T15:28:12.606Z,11.30
2018-03-19T15:30:40.178Z,12.20
2018-03-19T15:33:07.835Z,12.37
2018-03-19T15:35:36.298Z,10.75
2018-03-19T15:38:04.022Z,11.73
2018-03-19T15:40:31.750Z,11.35
2018-03-19T15:42:59.484Z,12.00
2018-03-19T15:45:27.196Z,12.27
2018-03-19T15:47:54.882Z,12.95
2018-03-19T15:50:22.559Z,12.13
2018-03-19T15:52:50.314Z,12.23
2018-03-19T15:55:18.068Z,12.05
2018-03-19T15:57:46.606Z,11.65
2018-03-19T16:00:14.318Z,14.35
2018-03-19T16:02:41.926Z,12.77
2018-03-19T16:05:09.591Z,17.52
2018-03-19T16:07:38.001Z,17.60
2018-03-19T16:10:06.393Z,13.38
2018-03-19T16:12:34.800Z,13.82
2018-03-19T16:15:02.519Z,18.80
2018-03-19T16:17:30.922Z,12.27
2018-03-19T16:19:58.684Z,12.95
2018-03-19T16:22:26.362Z,10.80
2018-03-19T16:24:55.504Z,14.60
2018-03-19T16:27:27.406Z,12.52
2018-03-19T16:29:55.850Z,14.23
2018-03-19T16:32:24.814Z,13.40
2018-03-19T16:34:52.882Z,11.57
2018-03-19T16:37:20.478Z,13.45
2018-03-19T16:39:48.938Z,13.60
2018-03-19T16:42:16.583Z,13.25
2018-03-19T16:44:44.201Z,12.73
2018-03-19T16:47:11.774Z,13.50
2018-03-19T16:49:40.113Z,14.55
2018-03-19T16:52:07.755Z,13.55
2018-03-19T16:54:35.452Z,12.20
2018-03-19T16:57:03.077Z,16.12
2018-03-19T16:59:30.742Z,13.20
2018-03-19T17:01:58.314Z,13.35
2018-03-19T17:04:25.899Z,13.55
2018-03-19T17:06:53.510Z,12.00
2018-03-19T17:09:21.113Z,13.62
2018-03-19T17:11:48.762Z,14.18
2018-03-19T17:14:16.383Z,14.55
2018-03-19T17:16:44.724Z,14.95
2018-03-19T17:19:12.375Z,14.95
2018-03-19T17:21:40.059Z,13.13
2018-03-19T17:24:07.720Z,14.05
2018-03-19T17:26:35.395Z,14.35
2018-03-19T17:29:03.850Z,12.88
2018-03-19T17:31:31.486Z,13.18
2018-03-19T17:33:59.159Z,15.35
2018-03-19T17:36:26.758Z,14.68
2018-03-19T17:38:54.368Z,14.00
2018-03-19T17:41:21.990Z,13.82
2018-03-19T17:43:49.850Z,13.35
2018-03-19T17:46:17.609Z,14.23
2018-03-19T17:48:45.182Z,14.90
2018-03-19T17:51:12.822Z,14.95
2018-03-19T17:53:40.464Z,14.10
2018-03-19T17:56:08.148Z,14.23
2018-03-19T17:58:35.747Z,14.15
2018-03-19T18:01:03.429Z,15.73
2018-03-19T18:03:31.026Z,14.73
2018-03-19T18:05:58.626Z,13.60
2018-03-19T18:08:26.258Z,16.52
2018-03-19T18:10:54.622Z,14.98
2018-03-19T18:13:22.307Z,14.10
2018-03-19T18:15:49.931Z,14.80
2018-03-19T18:18:17.509Z,13.95
2018-03-19T18:20:45.111Z,14.15
2018-03-19T18:23:13.486Z,14.10
2018-03-19T18:25:41.845Z,14.38
2018-03-19T18:28:09.481Z,13.98
2018-03-19T18:30:37.069Z,13.82
2018-03-19T18:33:04.689Z,13.05
2018-03-19T18:35:32.275Z,14.52
2018-03-19T18:38:00.734Z,14.00
2018-03-19T18:40:28.367Z,13.50
2018-03-19T18:42:55.974Z,15.38
2018-03-19T18:45:23.546Z,13.75
2018-03-19T18:47:51.217Z,14.75
2018-03-19T18:50:18.818Z,14.65
2018-03-19T18:52:46.432Z,15.30
2018-03-19T18:55:14.061Z,15.27
2018-03-19T18:57:41.638Z,16.58
2018-03-19T19:00:09.258Z,16.20
2018-03-19T19:02:36.850Z,19.02
2018-03-19T19:05:04.506Z,16.12
2018-03-19T19:07:32.189Z,16.23
2018-03-19T19:09:59.831Z,15.52
2018-03-19T19:12:27.420Z,15.48
2018-03-19T19:14:55.080Z,14.23
2018-03-19T19:17:22.717Z,17.27
2018-03-19T19:19:50.338Z,15.00
2018-03-19T19:22:18.701Z,16.08
2018-03-19T19:24:46.306Z,14.55
2018-03-19T19:27:13.951Z,15.30
2018-03-19T19:29:42.339Z,16.27
2018-03-19T19:32:09.922Z,16.08
2018-03-19T19:34:37.563Z,15.32
2018-03-19T19:37:05.230Z,14.95
2018-03-19T19:39:32.846Z,15.77
2018-03-19T19:42:00.434Z,15.27
2018-03-19T19:44:28.849Z,16.00
2018-03-19T19:46:56.443Z,15.13
2018-03-19T19:49:24.079Z,15.55
2018-03-19T19:51:51.665Z,17.12
2018-03-19T19:54:19.296Z,17.60
2018-03-19T19:56:46.866Z,16.65
2018-03-19T19:59:14.678Z,16.60
2018-03-19T20:01:42.247Z,15.45
2018-03-19T20:04:09.812Z,18.15
2018-03-19T20:06:38.267Z,17.50
2018-03-19T20:09:05.962Z,18.55
2018-03-19T20:11:33.595Z,16.60
2018-03-19T20:14:01.173Z,17.05
2018-03-19T20:16:28.830Z,16.83
2018-03-19T20:18:57.265Z,16.85
2018-03-19T20:21:24.894Z,16.58
2018-03-19T20:23:52.505Z,15.88
2018-03-19T20:26:20.166Z,16.77
2018-03-19T20:28:47.774Z,15.85
2018-03-19T20:31:15.398Z,16.95
2018-03-19T20:33:43.064Z,15.48
2018-03-19T20:36:10.675Z,16.42
2018-03-19T20:38:38.477Z,15.23
2018-03-19T20:41:06.096Z,14.43
2018-03-19T20:43:33.719Z,14.15
2018-03-19T20:46:01.348Z,14.45
2018-03-19T20:48:29.020Z,16.75
2018-03-19T20:50:56.809Z,16.85
2018-03-19T20:53:24.451Z,15.65
2018-03-19T20:55:52.035Z,15.07
2018-03-19T20:58:19.668Z,16.62
2018-03-19T21:00:47.306Z,14.57
2018-03-19T21:03:18.840Z,16.77
2018-03-19T21:05:46.454Z,15.15
2018-03-19T21:08:14.216Z,15.73
2018-03-19T21:10:42.935Z,14.93
2018-03-19T21:13:10.578Z,12.23
2018-03-19T21:15:38.161Z,14.93
2018-03-19T21:18:06.661Z,14.85
2018-03-19T21:20:34.290Z,15.18
2018-03-19T21:23:01.950Z,13.60
2018-03-19T21:25:29.549Z,13.00
2018-03-19T21:27:57.123Z,13.65
2018-03-19T21:30:24.743Z,14.23
2018-03-19T21:32:53.120Z,14.20
2018-03-19T21:35:20.760Z,15.00
2018-03-19T21:37:48.388Z,15.05
2018-03-19T21:40:16.123Z,13.15
2018-03-19T21:42:44.480Z,15.40
2018-03-19T21:45:12.083Z,14.27
2018-03-19T21:47:39.790Z,16.35
2018-03-19T21:50:07.507Z,14.15
2018-03-19T21:52:35.088Z,14.30
2018-03-19T21:55:02.760Z,13.65
2018-03-19T21:57:30.375Z,15.15
2018-03-19T21:59:57.966Z,16.45
2018-03-19T22:02:25.612Z,15.93
2018-03-19T22:04:53.190Z,15.95
2018-03-19T22:07:20.832Z,14.60
2018-03-19T22:09:48.420Z,15.10
2018-03-19T22:12:16.068Z,14.27
2018-03-19T22:14:43.776Z,15.60
2018-03-19T22:17:11.402Z,14.63
2018-03-19T22:19:39.038Z,12.88
2018-03-19T22:22:06.870Z,13.88
2018-03-19T22:24:34.479Z,14.50
2018-03-19T22:27:02.128Z,15.20
2018-03-19T22:29:29.793Z,14.38
2018-03-19T22:31:58.192Z,14.18
2018-03-19T22:34:25.825Z,13.95
2018-03-19T22:36:53.483Z,14.05
2018-03-19T22:39:21.884Z,12.82
2018-03-19T22:41:49.527Z,14.68
2018-03-19T22:44:17.932Z,13.10
2018-03-19T22:46:45.514Z,13.85
2018-03-19T22:49:13.119Z,13.40
2018-03-19T22:51:40.732Z,14.43
2018-03-19T22:54:08.410Z,15.05
2018-03-19T22:56:36.002Z,14.38
2018-03-19T22:59:03.670Z,13.85
2018-03-19T23:01:32.030Z,13.48
2018-03-19T23:03:59.669Z,13.93
2018-03-19T23:06:27.252Z,14.90
2018-03-19T23:08:54.971Z,12.55
2018-03-19T23:11:22.641Z,13.55
2018-03-19T23:13:50.979Z,13.25
2018-03-19T23:16:18.594Z,13.80
2018-03-19T23:18:46.307Z,15.45
2018-03-19T23:21:14.730Z,13.23
2018-03-19T23:23:42.310Z,15.10
2018-03-19T23:26:09.890Z,14.80
2018-03-19T23:28:37.520Z,13.25
2018-03-19T23:31:05.107Z,14.13
2018-03-19T23:33:32.722Z,13.25
2018-03-19T23:36:00.315Z,14.02
2018-03-19T23:38:27.981Z,14.15
2018-03-19T23:40:55.601Z,13.30
2018-03-19T23:43:23.299Z,13.95
2018-03-19T23:45:50.906Z,12.73
2018-03-19T23:48:19.259Z,13.95
2018-03-19T23:50:46.941Z,13.25
2018-03-19T23:53:14.539Z,13.62
2018-03-19T23:55:42.122Z,13.40
2018-03-19T23:58:09.777Z,14.75
